Time;durP1;ratioP1;P1;durP2;ratioP2;P2;SDS_P1;SDS_P2;PMS_P1;PMS_P2;Temp;Humidity;BMP_temperature;BMP_pressure;BME280_temperature;BME280_humidity;BME280_pressure;Samples;Min_cycle;Max_cycle;Signal;HPM_P1;HPM_P2
2023/04/14 00:01:15;;;;;;;9.55;7.38;;;23.60;47.30;;;;;;6150168;28;80775;-65
2023/04/14 00:04:16;;;;;;;10.85;7.13;;;23.50;47.40;;;;;;6143072;28;82059;-64
2023/04/14 00:07:16;;;;;;;11.55;7.13;;;23.50;47.30;;;;;;6149157;28;80881;-65
2023/04/14 00:10:17;;;;;;;8.85;6.90;;;23.50;47.30;;;;;;6150906;28;81100;-65
2023/04/14 00:13:17;;;;;;;8.80;6.82;;;23.50;47.20;;;;;;6149957;28;81436;-64
2023/04/14 00:16:18;;;;;;;10.20;6.93;;;23.50;47.40;;;;;;6147744;28;80543;-64
2023/04/14 00:19:18;;;;;;;10.65;7.03;;;23.50;47.20;;;;;;6145917;28;80447;-65
2023/04/14 00:22:20;;;;;;;9.35;6.28;;;23.50;47.30;;;;;;6151725;28;80726;-61
2023/04/14 00:25:21;;;;;;;10.18;6.97;;;23.50;47.20;;;;;;6153027;28;80826;-67
2023/04/14 00:28:21;;;;;;;9.63;6.85;;;23.50;47.60;;;;;;6152814;28;80456;-64
2023/04/14 00:31:22;;;;;;;9.13;6.53;;;23.50;48.00;;;;;;6151901;28;80603;-66
2023/04/14 00:34:22;;;;;;;8.18;6.10;;;23.50;47.60;;;;;;6151376;28;80685;-68
2023/04/14 00:37:24;;;;;;;10.63;6.50;;;23.50;47.70;;;;;;6150758;28;83599;-66
2023/04/14 00:40:25;;;;;;;8.52;6.25;;;23.50;47.60;;;;;;6149874;28;83654;-67
2023/04/14 00:43:26;;;;;;;8.43;6.13;;;23.50;47.90;;;;;;6151103;28;82067;-64
2023/04/14 00:46:27;;;;;;;9.05;6.25;;;23.50;47.90;;;;;;6160667;28;81413;-70
2023/04/14 00:49:27;;;;;;;8.68;6.78;;;23.50;47.90;;;;;;6153292;28;80421;-69
2023/04/14 00:52:28;;;;;;;7.78;5.85;;;23.50;47.70;;;;;;6153091;28;81102;-65
2023/04/14 00:55:28;;;;;;;9.88;6.50;;;23.50;47.80;;;;;;6152339;28;80421;-65
2023/04/14 00:58:29;;;;;;;11.43;6.38;;;23.50;47.80;;;;;;6141722;28;82722;-65
2023/04/14 01:01:29;;;;;;;9.15;6.13;;;23.50;48.00;;;;;;6120142;28;81619;-64
2023/04/14 01:04:30;;;;;;;7.32;5.63;;;23.50;48.00;;;;;;6143712;28;80630;-64
2023/04/14 01:07:31;;;;;;;9.70;6.15;;;23.50;48.00;;;;;;6152939;28;81397;-64
2023/04/14 01:10:31;;;;;;;8.02;5.68;;;23.50;48.00;;;;;;6152197;28;80822;-61
2023/04/14 01:13:32;;;;;;;8.35;5.97;;;23.50;48.00;;;;;;6151956;28;80782;-65
2023/04/14 01:16:33;;;;;;;9.93;6.28;;;23.50;47.80;;;;;;6151331;28;84000;-66
2023/04/14 01:19:33;;;;;;;9.70;6.13;;;23.50;47.90;;;;;;6147550;28;82717;-66
2023/04/14 01:22:34;;;;;;;8.73;5.53;;;23.50;47.80;;;;;;6151956;28;80490;-66
2023/04/14 01:25:34;;;;;;;8.40;5.85;;;23.50;47.80;;;;;;6149543;28;83384;-65
2023/04/14 01:28:35;;;;;;;8.85;6.35;;;23.50;48.00;;;;;;6150671;28;82543;-67
2023/04/14 01:31:38;;;;;;;9.90;6.53;;;23.50;47.80;;;;;;6141675;28;82817;-67
2023/04/14 01:34:39;;;;;;;10.77;7.28;;;23.50;47.70;;;;;;6113377;28;83323;-66
2023/04/14 01:37:39;;;;;;;9.43;6.80;;;23.50;47.70;;;;;;6147389;28;80784;-67
2023/04/14 01:40:40;;;;;;;9.23;6.72;;;23.50;47.70;;;;;;6163322;28;83180;-67
2023/04/14 01:43:41;;;;;;;8.90;6.78;;;23.40;47.70;;;;;;6159043;28;81305;-67
2023/04/14 01:46:41;;;;;;;10.43;6.43;;;23.40;47.80;;;;;;6158272;28;83916;-67
2023/04/14 01:49:42;;;;;;;10.43;6.50;;;23.40;47.80;;;;;;6141764;28;81554;-64
2023/04/14 01:52:42;;;;;;;9.20;5.78;;;23.40;47.80;;;;;;6131436;28;80444;-65
2023/04/14 01:55:43;;;;;;;11.18;7.15;;;23.40;47.90;;;;;;6150064;28;80842;-64
2023/04/14 01:58:44;;;;;;;8.60;5.93;;;23.40;47.80;;;;;;6152507;28;81386;-64
2023/04/14 02:01:45;;;;;;;8.55;6.63;;;23.50;47.90;;;;;;6154096;28;82979;-65
2023/04/14 02:04:45;;;;;;;8.60;6.20;;;23.40;47.80;;;;;;6153631;28;83205;-63
2023/04/14 02:07:46;;;;;;;9.98;6.47;;;23.50;47.70;;;;;;6152159;28;83279;-63
2023/04/14 02:10:47;;;;;;;8.52;6.25;;;23.40;47.70;;;;;;6154788;28;83047;-64
2023/04/14 02:13:48;;;;;;;9.00;6.20;;;23.40;47.70;;;;;;6153287;28;82054;-63
2023/04/14 02:16:48;;;;;;;8.23;5.75;;;23.40;47.60;;;;;;6155481;28;80932;-64
2023/04/14 02:19:49;;;;;;;7.80;6.20;;;23.50;47.60;;;;;;6152934;28;82337;-65
2023/04/14 02:22:49;;;;;;;9.57;6.63;;;23.50;47.50;;;;;;6155105;28;80607;-64
2023/04/14 02:25:50;;;;;;;8.52;5.95;;;23.50;47.40;;;;;;6154150;28;81018;-59
2023/04/14 02:28:50;;;;;;;10.25;6.28;;;23.50;47.40;;;;;;6153716;28;80414;-60
2023/04/14 02:31:51;;;;;;;7.82;5.80;;;23.50;47.40;;;;;;6154838;28;81368;-61
2023/04/14 02:34:52;;;;;;;9.68;6.40;;;23.50;47.50;;;;;;6145018;28;81804;-62
2023/04/14 02:37:52;;;;;;;10.43;6.50;;;23.50;47.40;;;;;;6160199;28;81674;-60
2023/04/14 02:40:53;;;;;;;10.35;5.80;;;23.50;47.40;;;;;;6144605;28;83455;-60
2023/04/14 02:43:54;;;;;;;8.10;6.18;;;23.50;47.50;;;;;;6137864;28;82043;-68
2023/04/14 02:46:54;;;;;;;8.25;6.18;;;23.50;47.40;;;;;;6154375;28;80345;-67
2023/04/14 02:49:56;;;;;;;9.60;5.93;;;23.50;47.40;;;;;;6153212;28;82796;-69
2023/04/14 02:52:56;;;;;;;8.98;6.10;;;23.50;47.40;;;;;;6133269;28;81605;-68
2023/04/14 02:56:01;;;;;;;8.75;6.35;;;23.50;47.50;;;;;;6129186;28;80905;-68
2023/04/14 02:59:06;;;;;;;8.47;5.93;;;23.50;47.40;;;;;;6127840;28;82537;-68
2023/04/14 03:02:08;;;;;;;8.45;5.75;;;23.50;47.50;;;;;;6120954;28;80300;-61
2023/04/14 03:05:12;;;;;;;8.90;6.03;;;23.50;47.40;;;;;;6128182;28;83020;-61
2023/04/14 03:08:24;;;;;;;9.45;5.88;;;23.50;47.40;;;;;;6128856;28;82667;-63
2023/04/14 03:11:24;;;;;;;8.77;6.13;;;23.50;47.50;;;;;;6128959;28;80066;-61
2023/04/14 03:14:25;;;;;;;8.38;5.95;;;23.50;47.50;;;;;;6151705;28;83118;-61
2023/04/14 03:17:26;;;;;;;8.68;7.15;;;23.50;47.60;;;;;;6153142;28;81937;-60
2023/04/14 03:20:27;;;;;;;8.57;5.80;;;23.40;47.50;;;;;;6144547;28;83777;-65
2023/04/14 03:23:30;;;;;;;12.18;6.72;;;23.50;47.50;;;;;;6135346;28;83709;-66
2023/04/14 03:26:35;;;;;;;9.23;5.80;;;23.50;47.50;;;;;;6128085;28;88099;-65
2023/04/14 03:29:36;;;;;;;8.43;6.03;;;23.50;47.60;;;;;;6145175;28;82360;-65
2023/04/14 03:32:40;;;;;;;8.82;6.38;;;23.50;47.40;;;;;;6155072;28;80694;-66
2023/04/14 03:35:41;;;;;;;8.27;6.03;;;23.50;47.50;;;;;;6151500;28;84124;-67
2023/04/14 03:38:42;;;;;;;8.70;5.63;;;23.50;47.50;;;;;;6142951;28;83556;-64
2023/04/14 03:41:46;;;;;;;9.88;6.05;;;23.50;47.50;;;;;;6151083;28;82043;-64
2023/04/14 03:44:52;;;;;;;10.05;6.82;;;23.50;47.30;;;;;;6151323;28;83167;-63
2023/04/14 03:47:56;;;;;;;9.73;6.10;;;23.50;47.40;;;;;;6151477;28;82753;-63
2023/04/14 03:50:57;;;;;;;10.02;5.88;;;23.50;47.40;;;;;;6147608;28;83054;-66
2023/04/14 03:53:59;;;;;;;8.40;5.43;;;23.50;47.30;;;;;;6151125;28;81587;-64
2023/04/14 03:57:01;;;;;;;7.80;5.88;;;23.50;47.40;;;;;;6150980;28;83047;-61
2023/04/14 04:00:03;;;;;;;11.73;6.22;;;23.50;47.30;;;;;;6133182;28;83737;-70
2023/04/14 04:03:13;;;;;;;9.50;5.95;;;23.40;47.50;;;;;;6130003;28;80823;-66
2023/04/14 04:06:15;;;;;;;11.82;6.25;;;23.40;47.40;;;;;;6149598;28;82852;-65
2023/04/14 04:09:16;;;;;;;6.60;5.20;;;23.40;47.50;;;;;;6152966;28;80933;-65
2023/04/14 04:12:17;;;;;;;9.00;5.97;;;23.50;47.40;;;;;;6153808;28;80289;-74
2023/04/14 04:15:18;;;;;;;8.27;5.90;;;23.40;47.40;;;;;;6151259;28;83344;-65
2023/04/14 04:18:19;;;;;;;8.10;5.25;;;23.40;47.40;;;;;;6146915;28;82995;-65
2023/04/14 04:21:20;;;;;;;8.63;5.82;;;23.40;47.30;;;;;;6151921;28;81702;-67
2023/04/14 04:24:21;;;;;;;7.57;5.38;;;23.40;47.40;;;;;;6149326;28;81907;-64
2023/04/14 04:27:21;;;;;;;9.32;6.05;;;23.40;47.50;;;;;;6150143;28;83321;-67
2023/04/14 04:30:22;;;;;;;10.73;5.88;;;23.30;47.60;;;;;;6149689;28;82183;-66
2023/04/14 04:33:23;;;;;;;9.63;5.95;;;23.30;47.60;;;;;;6150118;28;83659;-64
2023/04/14 04:36:24;;;;;;;9.00;5.95;;;23.30;47.80;;;;;;6150788;28;82944;-60
2023/04/14 04:39:25;;;;;;;7.88;5.88;;;23.30;48.00;;;;;;6148941;28;80426;-64
2023/04/14 04:42:25;;;;;;;8.43;5.70;;;23.30;48.00;;;;;;6146767;28;82199;-63
2023/04/14 04:45:27;;;;;;;9.95;5.72;;;23.30;48.30;;;;;;6148413;28;81634;-59
2023/04/14 04:48:28;;;;;;;8.10;5.68;;;23.30;48.70;;;;;;6147271;28;84080;-59
2023/04/14 04:51:30;;;;;;;9.30;5.60;;;23.30;49.40;;;;;;6147892;28;80584;-63
2023/04/14 04:54:30;;;;;;;12.15;6.10;;;23.30;49.70;;;;;;6146259;28;83330;-59
2023/04/14 04:57:31;;;;;;;9.57;5.30;;;23.30;49.80;;;;;;6142978;28;82463;-63
2023/04/14 05:00:32;;;;;;;9.40;5.15;;;23.30;50.00;;;;;;6139909;28;83132;-66
2023/04/14 05:03:32;;;;;;;9.35;6.00;;;23.30;49.70;;;;;;6145800;28;81833;-64
2023/04/14 05:06:33;;;;;;;8.65;6.07;;;23.40;49.80;;;;;;6146323;28;81240;-63
2023/04/14 05:09:33;;;;;;;8.38;5.03;;;23.40;49.70;;;;;;6148784;28;81054;-66
2023/04/14 05:12:34;;;;;;;10.85;5.45;;;23.40;49.60;;;;;;6148555;28;80360;-64
2023/04/14 05:15:35;;;;;;;10.25;5.60;;;23.40;49.40;;;;;;6148625;28;80809;-62
2023/04/14 05:18:35;;;;;;;9.15;6.22;;;23.40;49.50;;;;;;6149340;28;82538;-64
2023/04/14 05:21:36;;;;;;;9.50;5.63;;;23.40;49.40;;;;;;6149678;28;80516;-63
2023/04/14 05:24:36;;;;;;;12.52;6.13;;;23.40;49.20;;;;;;6152888;28;80600;-63
2023/04/14 05:27:37;;;;;;;8.45;5.55;;;23.40;49.20;;;;;;6158424;28;80249;-67
2023/04/14 05:30:37;;;;;;;11.52;6.38;;;23.40;49.60;;;;;;6147043;28;85536;-62
2023/04/14 05:33:38;;;;;;;12.57;5.63;;;23.50;49.60;;;;;;6147039;28;80624;-63
2023/04/14 05:36:39;;;;;;;8.95;5.28;;;23.50;49.40;;;;;;6141804;28;83510;-64
2023/04/14 05:39:39;;;;;;;11.05;6.28;;;23.50;49.60;;;;;;6126091;28;80619;-60
2023/04/14 05:42:40;;;;;;;9.43;6.32;;;23.50;49.40;;;;;;6129792;28;81974;-67
2023/04/14 05:45:41;;;;;;;13.20;6.20;;;23.50;49.30;;;;;;6054884;28;82106;-68
2023/04/14 05:48:41;;;;;;;9.70;6.38;;;23.50;49.30;;;;;;6141200;28;80717;-65
2023/04/14 05:51:42;;;;;;;11.50;5.85;;;23.50;49.10;;;;;;6146974;28;84611;-62
2023/04/14 05:54:42;;;;;;;9.18;6.10;;;23.60;49.20;;;;;;6137076;28;80546;-63
2023/04/14 05:57:43;;;;;;;10.30;6.60;;;23.60;49.20;;;;;;6129047;28;80336;-60
2023/04/14 06:00:43;;;;;;;10.77;5.75;;;23.60;48.90;;;;;;6126940;28;80615;-67
2023/04/14 06:03:44;;;;;;;11.55;6.97;;;23.60;49.00;;;;;;6101389;28;83554;-63
2023/04/14 06:06:45;;;;;;;14.18;6.78;;;23.60;48.90;;;;;;6129323;28;80842;-59
2023/04/14 06:09:45;;;;;;;9.55;6.22;;;23.60;49.00;;;;;;6130494;28;80924;-61
2023/04/14 06:12:46;;;;;;;9.35;6.05;;;23.60;48.80;;;;;;6128577;28;80767;-63
2023/04/14 06:15:46;;;;;;;10.18;6.13;;;23.60;48.80;;;;;;6136671;28;81013;-63
2023/04/14 06:18:47;;;;;;;14.32;6.93;;;23.60;48.80;;;;;;6126785;28;81245;-63
2023/04/14 06:21:47;;;;;;;8.82;5.78;;;23.60;48.60;;;;;;6128504;28;81438;-64
2023/04/14 06:24:48;;;;;;;12.95;6.22;;;23.60;48.60;;;;;;6138267;28;82968;-64
2023/04/14 06:27:48;;;;;;;15.98;6.35;;;23.60;48.70;;;;;;6133533;28;80954;-64
2023/04/14 06:30:49;;;;;;;10.05;6.10;;;23.60;48.50;;;;;;6151656;28;80460;-64
2023/04/14 06:33:51;;;;;;;11.05;6.47;;;23.60;48.70;;;;;;6152110;28;80643;-64
2023/04/14 06:36:52;;;;;;;12.85;6.80;;;23.60;48.50;;;;;;6150404;28;81745;-64
2023/04/14 06:39:52;;;;;;;10.85;6.00;;;23.60;48.50;;;;;;6152175;28;80707;-64
2023/04/14 06:42:53;;;;;;;11.02;6.68;;;23.70;48.60;;;;;;6151171;28;82079;-64
2023/04/14 06:45:53;;;;;;;11.75;6.57;;;23.70;48.40;;;;;;6150537;28;80952;-65
2023/04/14 06:48:54;;;;;;;10.00;5.93;;;23.70;48.50;;;;;;6151061;28;80590;-64
2023/04/14 06:51:54;;;;;;;10.35;6.55;;;23.70;48.70;;;;;;6149994;28;80674;-63
2023/04/14 06:54:55;;;;;;;9.63;6.30;;;23.70;48.50;;;;;;6144542;28;80522;-63
2023/04/14 06:57:55;;;;;;;9.80;6.05;;;23.70;48.60;;;;;;6150032;28;80787;-63
2023/04/14 07:00:56;;;;;;;9.40;5.80;;;23.80;48.60;;;;;;6149441;28;83287;-65
2023/04/14 07:03:56;;;;;;;8.07;5.88;;;23.80;49.10;;;;;;6151389;28;80474;-65
2023/04/14 07:06:57;;;;;;;10.05;6.10;;;23.80;48.90;;;;;;6149231;28;81464;-64
2023/04/14 07:09:57;;;;;;;9.77;5.85;;;23.80;48.80;;;;;;6142268;28;81660;-65
2023/04/14 07:12:58;;;;;;;10.02;6.13;;;23.80;48.70;;;;;;6137460;28;80507;-67
2023/04/14 07:15:58;;;;;;;9.25;6.28;;;23.90;48.80;;;;;;6150862;28;80912;-62
2023/04/14 07:18:59;;;;;;;9.13;6.25;;;23.90;48.80;;;;;;6151121;28;81507;-67
2023/04/14 07:22:00;;;;;;;7.90;5.72;;;23.90;48.70;;;;;;6138292;28;80788;-67
2023/04/14 07:25:01;;;;;;;8.45;5.85;;;23.90;48.70;;;;;;6115466;28;82790;-66
2023/04/14 07:28:01;;;;;;;7.95;5.95;;;23.90;48.50;;;;;;6132939;28;80203;-67
2023/04/14 07:31:02;;;;;;;10.60;5.75;;;23.90;48.60;;;;;;6149375;28;81233;-64
2023/04/14 07:34:02;;;;;;;15.07;6.82;;;23.90;48.50;;;;;;6152123;28;82584;-61
2023/04/14 07:37:03;;;;;;;7.30;5.03;;;24.00;48.20;;;;;;6145561;28;82008;-64
2023/04/14 07:40:03;;;;;;;9.02;6.25;;;24.00;48.10;;;;;;6144217;28;84259;-62
2023/04/14 07:43:04;;;;;;;9.95;6.40;;;24.00;48.30;;;;;;6140093;28;80881;-62
2023/04/14 07:46:05;;;;;;;10.88;6.20;;;24.00;48.30;;;;;;6125004;28;80488;-63
2023/04/14 07:49:05;;;;;;;10.43;5.60;;;24.00;48.30;;;;;;6121415;28;87318;-62
2023/04/14 07:52:06;;;;;;;9.60;6.10;;;23.90;48.20;;;;;;6124345;28;80837;-63
2023/04/14 07:55:06;;;;;;;10.77;5.90;;;24.00;48.20;;;;;;6138895;28;80400;-64
2023/04/14 07:58:07;;;;;;;7.70;5.45;;;23.90;48.20;;;;;;6149680;28;81926;-63
2023/04/14 08:01:07;;;;;;;10.90;6.13;;;23.90;48.00;;;;;;6150137;28;80255;-63
2023/04/14 08:04:08;;;;;;;12.73;6.20;;;23.90;47.90;;;;;;6129920;28;80614;-64
2023/04/14 08:07:08;;;;;;;11.23;5.63;;;23.90;47.90;;;;;;6125674;28;86703;-64
2023/04/14 08:10:09;;;;;;;9.60;5.28;;;23.90;48.00;;;;;;6114829;28;80959;-62
2023/04/14 08:13:10;;;;;;;7.35;4.97;;;23.90;47.80;;;;;;6123762;28;81094;-64
2023/04/14 08:16:10;;;;;;;7.53;5.30;;;23.90;47.60;;;;;;6107304;28;81294;-65
2023/04/14 08:19:11;;;;;;;8.07;5.15;;;23.90;47.50;;;;;;6101203;28;82590;-63
2023/04/14 08:22:11;;;;;;;9.55;5.22;;;23.90;47.40;;;;;;6112030;28;83012;-64
2023/04/14 08:25:13;;;;;;;8.32;5.68;;;23.90;47.30;;;;;;6116760;28;81945;-64
2023/04/14 08:28:14;;;;;;;6.63;4.65;;;23.90;47.20;;;;;;6117661;28;81961;-62
2023/04/14 08:31:14;;;;;;;8.40;4.78;;;24.00;47.20;;;;;;6123138;28;85158;-64
2023/04/14 08:34:15;;;;;;;8.68;5.25;;;23.90;47.10;;;;;;6149807;28;81133;-64
2023/04/14 08:37:17;;;;;;;7.50;5.22;;;23.90;46.90;;;;;;6149852;28;80565;-62
2023/04/14 08:40:17;;;;;;;7.20;4.97;;;24.00;47.00;;;;;;6143707;28;84721;-62
2023/04/14 08:43:18;;;;;;;5.57;4.35;;;24.00;46.70;;;;;;6144963;28;80769;-64
2023/04/14 08:46:18;;;;;;;5.85;4.35;;;24.00;46.70;;;;;;6128589;28;81540;-63
2023/04/14 08:49:19;;;;;;;6.65;4.60;;;24.00;46.60;;;;;;6137606;28;83417;-63
2023/04/14 08:52:20;;;;;;;8.07;4.63;;;24.00;46.60;;;;;;6146576;28;80934;-63
2023/04/14 08:55:20;;;;;;;7.20;4.93;;;24.00;46.60;;;;;;6147460;28;80501;-63
2023/04/14 08:58:21;;;;;;;6.43;4.57;;;24.00;46.80;;;;;;6141351;28;81573;-74
2023/04/14 09:01:21;;;;;;;6.75;4.38;;;24.00;47.20;;;;;;6152001;28;81910;-63
2023/04/14 09:04:22;;;;;;;8.50;4.82;;;24.10;47.30;;;;;;6151078;28;81397;-66
2023/04/14 09:07:22;;;;;;;6.65;4.50;;;24.10;47.20;;;;;;6149006;28;80456;-64
2023/04/14 09:10:23;;;;;;;4.80;4.05;;;24.10;47.30;;;;;;6149516;28;80213;-65
2023/04/14 09:13:23;;;;;;;5.65;3.88;;;24.10;47.20;;;;;;6145193;28;80649;-65
2023/04/14 09:16:25;;;;;;;7.68;4.38;;;24.10;47.20;;;;;;6151231;28;80706;-68
2023/04/14 09:19:25;;;;;;;6.95;4.05;;;24.10;47.30;;;;;;6153063;28;81452;-64
2023/04/14 09:22:26;;;;;;;6.88;4.45;;;24.10;47.50;;;;;;6151798;28;81018;-63
2023/04/14 09:25:26;;;;;;;6.78;3.72;;;24.10;47.70;;;;;;6151527;28;80164;-64
2023/04/14 09:28:27;;;;;;;6.72;3.95;;;24.10;47.80;;;;;;6160638;28;80651;-65
2023/04/14 09:31:27;;;;;;;6.30;3.67;;;24.10;48.00;;;;;;6154152;28;83475;-64
2023/04/14 09:34:28;;;;;;;7.30;3.97;;;24.20;47.90;;;;;;6145609;28;83115;-65
2023/04/14 09:37:28;;;;;;;5.60;3.85;;;24.20;48.10;;;;;;6139163;28;83525;-65
2023/04/14 09:40:29;;;;;;;5.00;3.40;;;24.20;48.10;;;;;;6138535;28;81843;-65
2023/04/14 09:43:30;;;;;;;6.93;3.42;;;24.20;48.10;;;;;;6146743;28;80341;-66
2023/04/14 09:46:31;;;;;;;5.78;4.25;;;24.20;48.10;;;;;;6150563;28;80855;-68
2023/04/14 09:49:32;;;;;;;4.07;3.30;;;24.20;48.20;;;;;;6132473;28;82725;-67
2023/04/14 09:52:32;;;;;;;7.50;4.18;;;24.20;48.30;;;;;;6141522;28;82087;-67
2023/04/14 09:55:33;;;;;;;5.40;3.88;;;24.20;48.30;;;;;;6150465;28;80529;-69
2023/04/14 09:58:33;;;;;;;5.75;3.65;;;24.20;48.00;;;;;;6147411;28;81368;-65
2023/04/14 10:01:34;;;;;;;5.45;4.30;;;24.20;47.80;;;;;;6149833;28;80896;-63
2023/04/14 10:04:35;;;;;;;6.57;3.63;;;24.20;48.20;;;;;;6151802;28;81147;-66
2023/04/14 10:07:36;;;;;;;5.72;3.70;;;24.20;48.20;;;;;;6150683;28;83044;-66
2023/04/14 10:10:36;;;;;;;5.85;3.58;;;24.20;48.30;;;;;;6150295;28;81490;-66
2023/04/14 10:13:37;;;;;;;5.32;3.67;;;24.20;48.30;;;;;;6153383;28;80357;-65
2023/04/14 10:16:37;;;;;;;7.75;3.42;;;24.20;48.40;;;;;;6155462;28;80569;-67
2023/04/14 10:19:38;;;;;;;4.68;3.28;;;24.20;48.30;;;;;;6156220;28;81693;-67
2023/04/14 10:22:38;;;;;;;4.05;3.22;;;24.20;48.40;;;;;;6134416;28;80607;-64
2023/04/14 10:25:39;;;;;;;4.28;3.70;;;24.20;48.40;;;;;;6116354;28;80982;-65
2023/04/14 10:28:40;;;;;;;4.93;3.55;;;24.20;48.40;;;;;;6117836;28;80474;-66
2023/04/14 10:31:41;;;;;;;4.30;3.40;;;24.20;48.40;;;;;;6118454;28;81692;-68
2023/04/14 10:34:41;;;;;;;5.30;3.28;;;24.20;48.30;;;;;;6119959;28;80367;-66
2023/04/14 10:37:42;;;;;;;4.55;2.88;;;24.20;48.30;;;;;;6123631;28;81244;-65
2023/04/14 10:40:43;;;;;;;6.97;3.35;;;24.30;48.30;;;;;;6115427;28;80680;-66
2023/04/14 10:43:43;;;;;;;5.25;3.38;;;24.20;48.30;;;;;;6110581;28;85023;-68
2023/04/14 10:46:44;;;;;;;5.63;3.50;;;24.30;48.40;;;;;;6107344;28;80521;-68
2023/04/14 10:49:44;;;;;;;6.32;3.38;;;24.30;48.40;;;;;;6125289;28;80959;-66
2023/04/14 10:52:45;;;;;;;4.13;3.45;;;24.30;48.30;;;;;;6113952;28;83713;-67
2023/04/14 10:55:45;;;;;;;8.63;3.47;;;24.30;48.30;;;;;;6121140;28;82215;-66
2023/04/14 10:58:46;;;;;;;5.18;3.28;;;24.30;48.40;;;;;;6117414;28;82455;-68
2023/04/14 11:01:47;;;;;;;6.18;2.92;;;24.30;48.40;;;;;;6116158;28;84214;-71
2023/04/14 11:04:48;;;;;;;4.40;2.88;;;24.30;48.50;;;;;;6132734;28;83337;-68
2023/04/14 11:07:50;;;;;;;5.38;3.28;;;24.30;48.50;;;;;;6135078;28;81434;-63
2023/04/14 11:10:51;;;;;;;21.90;4.80;;;24.30;48.40;;;;;;6121221;28;80225;-65
2023/04/14 11:13:51;;;;;;;3.63;2.60;;;24.30;48.40;;;;;;6144296;28;82696;-66
2023/04/14 11:16:52;;;;;;;4.93;3.00;;;24.30;48.50;;;;;;6152410;28;81477;-67
2023/04/14 11:19:54;;;;;;;6.95;2.78;;;24.30;48.40;;;;;;6157420;28;80658;-71
2023/04/14 11:22:54;;;;;;;3.97;2.90;;;24.30;48.60;;;;;;6151414;28;81898;-63
2023/04/14 11:25:56;;;;;;;5.85;2.70;;;24.30;48.50;;;;;;6153980;28;80879;-69
2023/04/14 11:28:58;;;;;;;5.32;2.67;;;24.30;48.50;;;;;;6156253;28;82385;-69
2023/04/14 11:31:59;;;;;;;5.28;2.60;;;24.30;48.40;;;;;;6154428;28;82709;-72
2023/04/14 11:35:00;;;;;;;5.53;3.10;;;24.30;48.40;;;;;;6153482;28;81119;-64
2023/04/14 11:38:00;;;;;;;3.55;2.63;;;24.30;48.40;;;;;;6152285;28;81509;-67
2023/04/14 11:41:01;;;;;;;11.55;5.95;;;24.30;48.10;;;;;;6153348;28;80946;-64
2023/04/14 11:44:02;;;;;;;81.35;50.65;;;24.30;48.60;;;;;;6121256;28;79996;-63
2023/04/14 11:47:03;;;;;;;171.20;90.78;;;24.30;49.80;;;;;;6122929;28;83820;-61
2023/04/14 11:50:04;;;;;;;196.60;107.57;;;24.40;49.80;;;;;;6158287;28;84805;-64
2023/04/14 11:53:05;;;;;;;230.00;121.68;;;24.20;48.30;;;;;;6145060;28;85702;-62
2023/04/14 11:56:07;;;;;;;205.55;114.82;;;24.20;48.10;;;;;;6146088;28;85736;-67
2023/04/14 11:59:08;;;;;;;164.05;91.78;;;24.30;47.60;;;;;;6147350;28;85547;-61
2023/04/14 12:02:09;;;;;;;97.93;58.33;;;24.20;46.00;;;;;;6151783;28;86082;-61
2023/04/14 12:05:09;;;;;;;71.88;42.47;;;24.00;43.80;;;;;;6145417;28;84475;-61
2023/04/14 12:08:11;;;;;;;31.60;20.08;;;23.90;42.60;;;;;;6148953;28;84706;-60
2023/04/14 12:11:14;;;;;;;23.85;13.80;;;23.90;41.20;;;;;;6146968;28;83484;-63
2023/04/14 12:14:15;;;;;;;16.13;6.82;;;23.90;40.10;;;;;;6146044;28;88355;-66
2023/04/14 12:17:15;;;;;;;9.65;5.28;;;23.80;37.90;;;;;;6148534;28;85126;-69
2023/04/14 12:20:17;;;;;;;12.82;5.05;;;23.40;39.00;;;;;;6152249;28;81306;-68
2023/04/14 12:23:18;;;;;;;6.15;4.40;;;23.40;39.60;;;;;;6142437;28;82114;-71
2023/04/14 12:26:18;;;;;;;6.55;4.13;;;23.60;39.70;;;;;;6145414;28;81609;-69
2023/04/14 12:29:19;;;;;;;3.38;3.05;;;23.80;39.80;;;;;;6151182;28;80667;-70
2023/04/14 12:32:21;;;;;;;8.00;3.40;;;23.20;37.70;;;;;;6151247;28;80229;-65
2023/04/14 12:35:22;;;;;;;4.72;3.60;;;23.30;38.00;;;;;;6149188;28;81101;-65
2023/04/14 12:38:23;;;;;;;7.80;3.10;;;23.10;38.40;;;;;;6149649;28;80466;-64
2023/04/14 12:41:23;;;;;;;6.05;2.90;;;23.20;39.10;;;;;;6124803;28;81099;-67
2023/04/14 12:44:24;;;;;;;6.55;2.83;;;23.40;39.40;;;;;;6139383;28;80801;-60
2023/04/14 12:47:25;;;;;;;4.53;2.80;;;23.50;39.70;;;;;;6119456;28;82018;-63
2023/04/14 12:50:29;;;;;;;4.18;2.95;;;23.60;39.90;;;;;;6111669;28;80539;-68
2023/04/14 12:53:31;;;;;;;4.47;2.95;;;23.60;39.50;;;;;;6144970;28;81121;-63
2023/04/14 12:56:31;;;;;;;4.20;3.15;;;23.60;39.70;;;;;;6150955;28;85403;-63
2023/04/14 12:59:32;;;;;;;8.02;3.22;;;23.70;39.60;;;;;;6145898;28;81119;-67
2023/04/14 13:02:34;;;;;;;4.57;3.20;;;23.50;39.80;;;;;;6146469;28;81279;-68
2023/04/14 13:05:35;;;;;;;5.03;2.95;;;23.50;40.00;;;;;;6148309;28;83468;-68
2023/04/14 13:08:35;;;;;;;3.95;3.15;;;23.60;40.00;;;;;;6117322;28;80349;-61
2023/04/14 13:11:36;;;;;;;7.00;3.22;;;23.60;40.10;;;;;;6136316;28;81706;-62
2023/04/14 13:14:36;;;;;;;4.65;2.83;;;23.50;40.00;;;;;;6116179;28;80782;-60
2023/04/14 13:17:37;;;;;;;5.18;3.08;;;23.50;40.40;;;;;;6110745;28;82303;-61
2023/04/14 13:20:37;;;;;;;3.83;3.08;;;23.50;40.50;;;;;;6115681;28;80474;-62
2023/04/14 13:23:38;;;;;;;6.50;3.35;;;23.40;40.60;;;;;;6107556;28;80407;-61
2023/04/14 13:26:38;;;;;;;5.80;3.05;;;23.30;40.30;;;;;;6110592;28;82459;-71
2023/04/14 13:29:39;;;;;;;4.05;3.13;;;23.40;41.60;;;;;;6131825;28;82109;-68
2023/04/14 13:32:39;;;;;;;5.13;2.80;;;23.50;40.90;;;;;;6130333;28;83525;-67
2023/04/14 13:35:40;;;;;;;8.00;3.33;;;23.50;40.90;;;;;;6148306;28;81246;-71
2023/04/14 13:38:41;;;;;;;3.65;2.90;;;23.40;41.10;;;;;;6150215;28;80449;-66
2023/04/14 13:41:41;;;;;;;8.45;3.28;;;23.40;41.20;;;;;;6147951;28;80927;-72
2023/04/14 13:44:42;;;;;;;4.47;3.08;;;23.40;40.90;;;;;;6153931;28;80570;-61
2023/04/14 13:47:42;;;;;;;7.05;3.35;;;23.30;41.10;;;;;;6152340;28;82140;-60
2023/04/14 13:50:43;;;;;;;6.38;3.30;;;23.30;41.00;;;;;;6152172;28;80725;-61
2023/04/14 13:53:43;;;;;;;4.93;3.10;;;23.40;41.10;;;;;;6155320;28;83771;-65
2023/04/14 13:56:44;;;;;;;3.97;3.03;;;23.40;40.90;;;;;;6152872;28;81012;-61
2023/04/14 13:59:45;;;;;;;6.28;2.88;;;23.50;40.90;;;;;;6144969;28;83166;-62
2023/04/14 14:02:45;;;;;;;4.53;3.00;;;23.50;41.00;;;;;;6150311;28;81831;-73
2023/04/14 14:05:46;;;;;;;4.93;2.95;;;23.50;40.90;;;;;;6150117;28;80714;-73
2023/04/14 14:08:46;;;;;;;3.25;2.72;;;23.50;40.90;;;;;;6152756;28;81677;-72
2023/04/14 14:11:47;;;;;;;3.50;2.80;;;23.50;41.40;;;;;;6146543;28;80438;-73
2023/04/14 14:14:47;;;;;;;4.22;2.90;;;23.40;40.80;;;;;;6116931;28;80392;-71
2023/04/14 14:17:48;;;;;;;6.18;3.17;;;23.30;40.90;;;;;;6116226;28;83158;-72
2023/04/14 14:20:49;;;;;;;3.17;2.88;;;23.40;40.90;;;;;;6161350;28;82180;-72
2023/04/14 14:23:49;;;;;;;3.58;2.72;;;23.40;40.90;;;;;;6155352;28;82848;-69
2023/04/14 14:26:50;;;;;;;3.65;2.67;;;23.50;40.70;;;;;;6150285;28;82179;-69
2023/04/14 14:29:50;;;;;;;3.42;3.00;;;23.40;40.80;;;;;;6148305;28;81103;-73
2023/04/14 14:32:51;;;;;;;3.53;2.63;;;23.40;40.90;;;;;;6151898;28;81551;-74
2023/04/14 14:35:51;;;;;;;5.80;3.50;;;23.50;40.90;;;;;;6152521;28;80853;-73
2023/04/14 14:38:52;;;;;;;5.28;3.17;;;23.50;40.90;;;;;;6152602;28;80523;-60
2023/04/14 14:41:55;;;;;;;4.55;2.92;;;23.50;40.90;;;;;;6156476;28;80542;-59
2023/04/14 14:44:56;;;;;;;7.05;3.13;;;23.60;40.80;;;;;;6149572;28;80573;-60
2023/04/14 14:47:56;;;;;;;3.83;2.90;;;23.60;41.00;;;;;;6151020;28;80747;-59
2023/04/14 14:50:57;;;;;;;8.13;3.20;;;23.60;41.30;;;;;;6145890;28;81462;-60
2023/04/14 14:53:59;;;;;;;6.38;2.83;;;23.60;41.50;;;;;;6146028;28;80669;-60
2023/04/14 14:57:00;;;;;;;7.93;3.17;;;23.60;41.60;;;;;;6146299;28;82286;-71
2023/04/14 15:00:00;;;;;;;4.70;3.17;;;23.60;41.70;;;;;;6148821;28;80233;-62
2023/04/14 15:03:01;;;;;;;5.10;3.50;;;23.60;41.90;;;;;;6146292;28;82861;-61
2023/04/14 15:06:02;;;;;;;4.97;2.80;;;23.60;42.10;;;;;;6145335;28;80528;-61
2023/04/14 15:09:02;;;;;;;5.95;3.13;;;23.70;42.30;;;;;;6151035;28;80296;-59
2023/04/14 15:12:03;;;;;;;4.60;3.22;;;23.70;42.60;;;;;;6146054;28;81676;-62
2023/04/14 15:15:03;;;;;;;4.15;2.92;;;23.70;42.60;;;;;;6147550;28;80320;-61
2023/04/14 15:18:06;;;;;;;4.80;3.33;;;23.70;42.70;;;;;;6148201;28;80909;-62
2023/04/14 15:21:07;;;;;;;4.93;3.25;;;23.70;42.80;;;;;;6150462;28;80052;-60
2023/04/14 15:24:07;;;;;;;8.48;3.45;;;23.70;42.80;;;;;;6141720;28;81945;-63
2023/04/14 15:27:08;;;;;;;5.95;3.17;;;23.70;42.80;;;;;;6150361;28;81989;-59
2023/04/14 15:30:08;;;;;;;4.28;3.17;;;23.70;43.00;;;;;;6147025;28;81055;-64
2023/04/14 15:33:09;;;;;;;6.43;3.40;;;23.70;43.10;;;;;;6143495;28;81942;-62
2023/04/14 15:36:10;;;;;;;3.55;3.25;;;23.70;43.30;;;;;;6150474;28;80466;-59